4TE4 weather

Taurus Mesa Airport
Alpine, Texas, United States

Public forecast

Using degrees Fahrenheit for public forecast. Weather courtesy of forecast.io.

Closest aviation weather report (METAR) to Taurus Mesa Airport

Closest report is Presidio Lely International Airport, 35.6 nm (66.0 km) W. Retrieved 2020/06/04 22:35 UTC (18 minutes ago):

KPRS 042235Z AUTO 26006KT 10SM SCT110 39/12 A2983 RMK AO2 T03890120

Closest aviation forecast (TAF) to Taurus Mesa Airport

Closest forecast is Fort Stockton Pecos County Airport, 87.2 nm (161.5 km) NNE. Retrieved 2020/06/04 18:42 UTC (4 hours ago):

TAF KFST 041738Z 0418/0518 14013G20KT P6SM SKC FM050200 15015KT P6SM SKC